createdAt,value
2019-04-11T00:01:48.241Z,94.13
2019-04-11T00:07:16.238Z,94.63
2019-04-11T00:12:46.426Z,98.57
2019-04-11T00:18:16.702Z,92.13
2019-04-11T00:23:46.365Z,93.57
2019-04-11T00:29:17.091Z,88.83
2019-04-11T00:34:46.991Z,97.90
2019-04-11T00:40:17.492Z,86.97
2019-04-11T00:45:47.768Z,94.87
2019-04-11T00:51:18.449Z,98.93
2019-04-11T00:56:48.455Z,95.57
2019-04-11T01:02:18.053Z,97.37
2019-04-11T01:07:47.374Z,91.20
2019-04-11T01:13:18.685Z,93.10
2019-04-11T01:18:48.103Z,89.30
2019-04-11T01:24:17.753Z,102.40
2019-04-11T01:29:47.406Z,95.77
2019-04-11T01:35:17.287Z,87.47
2019-04-11T01:40:47.737Z,92.60
2019-04-11T01:46:18.125Z,90.47
2019-04-11T01:51:47.677Z,83.17
2019-04-11T01:57:18.006Z,85.50
2019-04-11T02:02:49.104Z,78.73
2019-04-11T02:08:19.518Z,83.27
2019-04-11T02:13:48.904Z,61.60
2019-04-11T02:19:18.799Z,57.50
2019-04-11T02:24:52.567Z,48.70
2019-04-11T02:30:22.746Z,45.03
2019-04-11T02:35:54.049Z,47.47
2019-04-11T02:41:25.391Z,46.47
2019-04-11T02:47:03.278Z,39.50
2019-04-11T02:52:27.545Z,40.80
2019-04-11T02:57:59.117Z,35.63
2019-04-11T03:03:29.823Z,36.33
2019-04-11T03:08:59.812Z,30.90
2019-04-11T03:14:44.815Z,37.60
2019-04-11T03:20:13.138Z,30.43
2019-04-11T03:25:33.039Z,32.90
2019-04-11T03:31:32.657Z,32.27
2019-04-11T03:37:13.680Z,28.00
2019-04-11T03:42:21.629Z,32.20
2019-04-11T03:47:50.539Z,28.87
2019-04-11T03:53:10.952Z,24.33
2019-04-11T03:58:41.726Z,31.20
2019-04-11T04:04:13.164Z,29.00
2019-04-11T04:09:45.705Z,26.00
2019-04-11T04:15:35.892Z,28.03
2019-04-11T04:21:04.108Z,28.20
2019-04-11T04:26:33.781Z,27.50
2019-04-11T04:32:05.415Z,28.03
2019-04-11T04:37:38.614Z,30.67
2019-04-11T04:43:10.509Z,31.67
2019-04-11T04:48:42.537Z,28.30
2019-04-11T04:54:12.152Z,27.10
2019-04-11T04:59:42.552Z,29.47
2019-04-11T05:05:13.627Z,26.47
2019-04-11T05:10:44.933Z,26.20
2019-04-11T05:16:17.651Z,26.07
2019-04-11T05:21:45.696Z,28.20
2019-04-11T05:27:15.042Z,28.07
2019-04-11T05:32:45.174Z,23.30
2019-04-11T05:38:14.718Z,27.10
2019-04-11T05:43:45.188Z,23.60
2019-04-11T05:49:16.912Z,30.60
2019-04-11T05:54:49.788Z,25.40
2019-04-11T06:00:23.824Z,28.80
2019-04-11T06:05:59.819Z,29.90
2019-04-11T06:11:34.917Z,28.80
2019-04-11T06:17:07.201Z,24.57
2019-04-11T06:22:38.530Z,25.40
2019-04-11T06:28:12.455Z,29.80
2019-04-11T06:33:44.770Z,27.83
2019-04-11T06:39:25.452Z,25.23
2019-04-11T06:44:56.518Z,27.43
2019-04-11T06:50:33.564Z,25.23
2019-04-11T06:56:19.572Z,28.93
2019-04-11T07:01:49.247Z,29.50
2019-04-11T07:07:20.583Z,27.63
2019-04-11T07:12:54.403Z,27.13
2019-04-11T07:18:37.840Z,25.93
2019-04-11T07:24:24.738Z,27.43
2019-04-11T07:30:11.684Z,25.63
2019-04-11T07:35:45.263Z,35.43
2019-04-11T07:41:19.539Z,27.93
2019-04-11T07:47:13.587Z,24.93
2019-04-11T07:52:35.945Z,25.13
2019-04-11T07:58:21.936Z,28.17
2019-04-11T08:03:53.612Z,25.00
2019-04-11T08:09:28.893Z,29.60
2019-04-11T08:15:00.043Z,24.80
2019-04-11T08:20:43.603Z,31.70
2019-04-11T08:26:30.804Z,33.77
2019-04-11T08:32:02.665Z,28.53
2019-04-11T08:37:45.878Z,31.03
2019-04-11T08:43:17.189Z,26.80
2019-04-11T08:48:51.328Z,30.53
2019-04-11T08:54:22.357Z,40.30
2019-04-11T09:00:02.266Z,28.60
2019-04-11T09:05:36.055Z,34.17
2019-04-11T09:11:08.598Z,26.67
2019-04-11T09:16:42.581Z,38.87
2019-04-11T09:22:13.700Z,27.07
2019-04-11T09:27:44.758Z,28.77
2019-04-11T09:33:17.182Z,33.63
2019-04-11T09:38:49.363Z,36.77
2019-04-11T09:44:20.856Z,31.10
2019-04-11T09:49:55.839Z,39.90
2019-04-11T09:55:35.826Z,33.90
2019-04-11T10:01:10.279Z,37.37
2019-04-11T10:06:41.381Z,34.63
2019-04-11T10:12:29.703Z,35.77
2019-04-11T10:18:01.064Z,32.17
2019-04-11T10:23:32.672Z,33.50
2019-04-11T10:29:06.478Z,40.63
2019-04-11T10:34:50.054Z,36.07
2019-04-11T10:40:21.639Z,35.30
2019-04-11T10:46:02.796Z,36.53
2019-04-11T10:51:38.169Z,36.83
2019-04-11T10:57:09.979Z,41.73
2019-04-11T11:02:47.465Z,36.20
2019-04-11T11:08:21.630Z,35.83
2019-04-11T11:13:52.703Z,42.00
2019-04-11T11:19:40.338Z,36.73
2019-04-11T11:25:15.139Z,45.03
2019-04-11T11:30:54.146Z,41.87
2019-04-11T11:36:25.703Z,42.27
2019-04-11T11:42:02.589Z,42.70
2019-04-11T11:47:49.407Z,52.27
2019-04-11T11:53:25.792Z,39.33
2019-04-11T11:59:09.126Z,37.07
2019-04-11T12:04:56.082Z,47.00
2019-04-11T12:10:32.505Z,46.57
2019-04-11T12:16:21.298Z,41.33
2019-04-11T12:21:51.509Z,69.37
2019-04-11T12:27:26.826Z,44.27
2019-04-11T12:32:59.224Z,43.43
2019-04-11T12:38:48.338Z,41.40
2019-04-11T12:44:21.870Z,41.47
2019-04-11T12:49:53.476Z,50.63
2019-04-11T12:55:24.760Z,43.30
2019-04-11T13:01:02.590Z,45.53
2019-04-11T13:06:36.874Z,46.23
2019-04-11T13:12:08.161Z,59.70
2019-04-11T13:17:39.299Z,57.07
2019-04-11T13:23:13.292Z,50.97
2019-04-11T13:28:44.438Z,50.53
2019-04-11T13:34:15.703Z,57.73
2019-04-11T13:39:46.769Z,53.23
2019-04-11T13:45:16.277Z,55.20
2019-04-11T13:50:46.109Z,63.87
2019-04-11T13:56:15.771Z,51.70
2019-04-11T14:01:47.000Z,55.17
2019-04-11T14:07:23.438Z,53.67
2019-04-11T14:12:53.921Z,47.93
2019-04-11T14:18:34.193Z,55.53
2019-04-11T14:24:11.686Z,51.60
2019-04-11T14:29:43.324Z,58.60
2019-04-11T14:35:29.818Z,50.00
2019-04-11T14:41:11.879Z,52.57
2019-04-11T14:46:58.270Z,50.00
2019-04-11T14:52:31.777Z,54.03
2019-04-11T14:58:23.559Z,47.00
2019-04-11T15:03:57.501Z,53.80
2019-04-11T15:09:46.780Z,50.00
2019-04-11T15:15:26.552Z,50.70
2019-04-11T15:21:13.787Z,50.97
2019-04-11T15:26:51.064Z,49.07
2019-04-11T15:32:24.933Z,49.00
2019-04-11T15:38:12.338Z,52.00
2019-04-11T15:43:49.700Z,50.77
2019-04-11T15:49:29.603Z,44.90
2019-04-11T15:55:10.837Z,48.07
2019-04-11T16:00:44.943Z,53.47
2019-04-11T16:06:34.773Z,54.20
2019-04-11T16:12:05.420Z,52.97
2019-04-11T16:17:45.294Z,51.57
2019-04-11T16:23:19.211Z,57.03
2019-04-11T16:28:56.083Z,52.57
2019-04-11T16:34:27.081Z,54.37
2019-04-11T16:40:14.157Z,58.17
2019-04-11T16:45:54.651Z,52.77
2019-04-11T16:51:30.737Z,51.93
2019-04-11T16:56:54.107Z,51.93
2019-04-11T17:02:24.257Z,52.50
2019-04-11T17:07:56.728Z,51.20
2019-04-11T17:13:27.322Z,56.67
2019-04-11T17:18:57.099Z,50.20
2019-04-11T17:24:37.480Z,51.77
2019-04-11T17:30:08.571Z,53.00
2019-04-11T17:35:38.126Z,53.80
2019-04-11T17:41:10.896Z,49.63
2019-04-11T17:46:39.087Z,45.20
2019-04-11T17:52:09.071Z,51.80
2019-04-11T17:57:38.692Z,43.73
2019-04-11T18:03:11.742Z,48.70
2019-04-11T18:08:39.982Z,52.70
2019-04-11T18:14:09.488Z,51.13
2019-04-11T18:19:39.299Z,42.50
2019-04-11T18:25:09.071Z,42.40
2019-04-11T18:30:38.546Z,43.13
2019-04-11T18:36:08.245Z,40.20
2019-04-11T18:41:40.008Z,44.77
2019-04-11T18:47:09.915Z,44.60
2019-04-11T18:52:40.262Z,37.70
2019-04-11T18:58:09.978Z,38.57
2019-04-11T19:03:41.376Z,38.97
2019-04-11T19:09:14.149Z,36.50
2019-04-11T19:14:46.060Z,36.30
2019-04-11T19:20:18.887Z,33.53
2019-04-11T19:25:47.446Z,36.30
2019-04-11T19:31:16.874Z,35.00
2019-04-11T19:36:46.453Z,30.90
2019-04-11T19:42:19.542Z,33.47
2019-04-11T19:47:49.506Z,36.80
2019-04-11T19:53:18.222Z,28.53
2019-04-11T19:58:47.645Z,33.47
2019-04-11T20:04:17.131Z,38.90
2019-04-11T20:09:46.758Z,34.20
2019-04-11T20:15:16.161Z,35.33
2019-04-11T20:20:45.651Z,36.90
2019-04-11T20:26:15.027Z,34.00
2019-04-11T20:31:47.037Z,37.13
2019-04-11T20:37:16.435Z,32.27
2019-04-11T20:42:45.822Z,34.57
2019-04-11T20:48:15.245Z,32.47
2019-04-11T20:53:44.843Z,40.80
2019-04-11T20:59:14.372Z,32.83
2019-04-11T21:04:44.078Z,32.97
2019-04-11T21:10:13.773Z,31.00
2019-04-11T21:15:45.399Z,35.27
2019-04-11T21:21:14.950Z,30.17
2019-04-11T21:26:44.545Z,38.40
2019-04-11T21:32:14.171Z,33.17
2019-04-11T21:37:43.604Z,31.47
2019-04-11T21:43:13.176Z,39.20
2019-04-11T21:48:43.982Z,31.53
2019-04-11T21:54:15.115Z,35.90
2019-04-11T21:59:44.790Z,41.80
2019-04-11T22:05:14.469Z,30.10
2019-04-11T22:10:44.330Z,32.40
2019-04-11T22:16:14.457Z,34.97
2019-04-11T22:21:45.386Z,33.43
2019-04-11T22:27:15.561Z,32.90
2019-04-11T22:32:46.732Z,29.27
2019-04-11T22:38:16.166Z,32.80
2019-04-11T22:43:45.731Z,30.87
2019-04-11T22:49:15.157Z,36.57
2019-04-11T22:54:44.858Z,39.27
2019-04-11T23:00:15.736Z,29.27
2019-04-11T23:05:46.940Z,33.50
2019-04-11T23:11:16.431Z,32.87
2019-04-11T23:16:45.855Z,36.87
2019-04-11T23:22:15.307Z,38.03
2019-04-11T23:27:44.716Z,39.80
2019-04-11T23:33:24.253Z,40.27
2019-04-11T23:38:55.723Z,35.17
2019-04-11T23:44:26.069Z,38.03
2019-04-11T23:49:56.154Z,40.57
2019-04-11T23:55:27.867Z,35.60
